Time;durP1;ratioP1;P1;durP2;ratioP2;P2;SDS_P1;SDS_P2;PMS_P1;PMS_P2;Temp;Humidity;BMP_temperature;BMP_pressure;BME280_temperature;BME280_humidity;BME280_pressure;Samples;Min_cycle;Max_cycle;Signal;HPM_P1;HPM_P2
2023/09/05 00:02:59;;;;;;;5.53;4.32;;;17.40;99.90;;;;;;10433303;28;20238;-85
2023/09/05 00:08:02;;;;;;;9.05;4.97;;;17.40;99.90;;;;;;10448922;28;20777;-85
2023/09/05 00:13:06;;;;;;;7.18;4.60;;;17.40;99.90;;;;;;10431671;28;20250;-84
2023/09/05 00:18:08;;;;;;;7.45;4.53;;;17.40;99.90;;;;;;10441151;28;20280;-85
2023/09/05 00:23:11;;;;;;;10.45;5.38;;;17.40;99.90;;;;;;10445655;28;20261;-85
2023/09/05 00:28:13;;;;;;;5.10;4.30;;;17.40;99.90;;;;;;10453211;28;20291;-85
2023/09/05 00:33:16;;;;;;;5.13;4.63;;;17.50;99.90;;;;;;10436229;28;20262;-85
2023/09/05 00:38:19;;;;;;;5.75;3.85;;;17.50;99.90;;;;;;10437864;28;20257;-85
2023/09/05 00:43:21;;;;;;;7.80;4.40;;;17.60;99.90;;;;;;10441247;28;20234;-85
2023/09/05 00:48:27;;;;;;;4.78;4.07;;;17.60;99.90;;;;;;10477612;28;20237;-85
2023/09/05 00:53:30;;;;;;;4.47;3.83;;;17.70;99.90;;;;;;10432354;28;20308;-85
2023/09/05 00:58:33;;;;;;;4.38;3.72;;;17.80;99.90;;;;;;10435110;28;20293;-85
2023/09/05 01:03:36;;;;;;;6.28;3.58;;;17.80;99.90;;;;;;10437130;28;20365;-85
2023/09/05 01:08:47;;;;;;;4.32;3.80;;;17.80;99.90;;;;;;10440914;28;20262;-85
2023/09/05 01:13:50;;;;;;;3.25;2.95;;;17.70;99.90;;;;;;10432582;28;20258;-85
2023/09/05 01:18:52;;;;;;;6.85;4.63;;;17.80;99.90;;;;;;10439504;28;20231;-85
2023/09/05 01:24:24;;;;;;;4.25;3.65;;;17.90;99.90;;;;;;10442666;28;20257;-85
2023/09/05 01:29:35;;;;;;;4.05;3.75;;;17.80;99.90;;;;;;10419834;28;20243;-85
2023/09/05 01:34:38;;;;;;;5.60;3.70;;;17.70;99.90;;;;;;10430404;28;20258;-85
2023/09/05 01:39:42;;;;;;;6.38;2.92;;;17.80;99.90;;;;;;10448189;28;20257;-86
2023/09/05 01:44:44;;;;;;;2.50;2.30;;;18.00;99.90;;;;;;10450547;28;20273;-85
2023/09/05 01:49:47;;;;;;;5.20;3.28;;;18.20;99.90;;;;;;10439785;28;20231;-85
2023/09/05 01:54:50;;;;;;;3.00;2.70;;;18.50;99.90;;;;;;10426109;28;20255;-85
2023/09/05 01:59:53;;;;;;;8.70;4.97;;;18.60;99.90;;;;;;10443307;28;20231;-85
2023/09/05 02:04:55;;;;;;;6.70;5.00;;;18.70;99.90;;;;;;10413983;28;20678;-85
2023/09/05 02:09:58;;;;;;;8.88;5.07;;;18.70;99.90;;;;;;10421122;28;20255;-85
2023/09/05 02:15:03;;;;;;;10.52;5.68;;;18.50;99.90;;;;;;10453390;28;20277;-85
2023/09/05 02:20:07;;;;;;;6.30;5.25;;;18.50;99.90;;;;;;10447999;28;20227;-85
2023/09/05 02:25:11;;;;;;;6.20;4.43;;;18.50;99.90;;;;;;10452761;28;20243;-86
2023/09/05 02:30:16;;;;;;;4.13;3.78;;;18.50;99.90;;;;;;10465249;28;20297;-85
2023/09/05 02:35:21;;;;;;;4.20;3.75;;;18.40;99.90;;;;;;10443636;28;20831;-85
2023/09/05 02:40:24;;;;;;;7.07;5.78;;;18.50;99.90;;;;;;10452511;28;20572;-85
2023/09/05 02:45:27;;;;;;;6.03;4.78;;;18.40;99.90;;;;;;10444591;28;20254;-85
2023/09/05 02:50:29;;;;;;;7.78;5.70;;;18.20;99.90;;;;;;10457419;28;20199;-85
2023/09/05 02:55:34;;;;;;;7.72;5.38;;;18.10;99.90;;;;;;10438144;28;20304;-85
2023/09/05 03:00:37;;;;;;;9.02;6.55;;;17.90;99.90;;;;;;10428012;28;20207;-85
2023/09/05 03:05:40;;;;;;;9.73;6.20;;;17.60;99.90;;;;;;10441078;28;20223;-85
2023/09/05 03:10:43;;;;;;;5.10;4.22;;;17.40;99.90;;;;;;10439667;28;20266;-85
2023/09/05 03:15:51;;;;;;;6.53;5.13;;;17.40;99.90;;;;;;10439427;28;20235;-85
2023/09/05 03:20:56;;;;;;;8.70;6.45;;;17.20;99.90;;;;;;10446267;28;20265;-85
2023/09/05 03:25:59;;;;;;;11.60;6.43;;;17.10;99.90;;;;;;10451381;28;20665;-85
2023/09/05 03:31:02;;;;;;;8.90;6.55;;;16.80;99.90;;;;;;10450835;28;20911;-86
2023/09/05 03:36:05;;;;;;;9.18;6.38;;;16.50;99.90;;;;;;10449754;28;20242;-85
2023/09/05 03:41:09;;;;;;;7.60;6.82;;;16.30;99.90;;;;;;10444530;28;20720;-85
2023/09/05 03:46:12;;;;;;;7.32;6.55;;;16.20;99.90;;;;;;10447239;28;20226;-85
2023/09/05 03:51:15;;;;;;;5.50;4.57;;;16.10;99.90;;;;;;10450867;28;20300;-85
2023/09/05 03:56:18;;;;;;;6.55;4.78;;;16.10;99.90;;;;;;10448851;28;20238;-85
2023/09/05 04:01:20;;;;;;;9.93;5.80;;;16.10;99.90;;;;;;10419816;28;20235;-85
2023/09/05 04:06:23;;;;;;;16.02;7.97;;;16.00;99.90;;;;;;10462704;28;20230;-85
2023/09/05 04:11:25;;;;;;;6.53;5.57;;;16.00;99.90;;;;;;10432226;28;20263;-85
2023/09/05 04:16:28;;;;;;;6.97;6.05;;;15.90;99.90;;;;;;10484074;28;20235;-85
2023/09/05 04:21:31;;;;;;;5.07;4.68;;;15.80;99.90;;;;;;10440020;28;20234;-85
2023/09/05 04:26:33;;;;;;;7.97;7.18;;;15.90;99.90;;;;;;10464149;28;20242;-86
2023/09/05 04:31:36;;;;;;;9.25;6.45;;;15.90;99.90;;;;;;10462115;28;20300;-85
2023/09/05 04:36:38;;;;;;;14.52;6.90;;;15.80;99.90;;;;;;10430281;28;20243;-85
2023/09/05 04:41:41;;;;;;;9.77;6.22;;;15.70;99.90;;;;;;10439334;28;20227;-85
2023/09/05 04:46:45;;;;;;;10.05;7.28;;;15.70;99.90;;;;;;10441599;28;20303;-85
2023/09/05 04:51:48;;;;;;;4.20;3.55;;;15.70;99.90;;;;;;10454499;28;20674;-85
2023/09/05 04:56:51;;;;;;;7.82;6.10;;;15.90;99.90;;;;;;10436732;28;20725;-85
2023/09/05 05:01:54;;;;;;;7.85;6.18;;;16.00;99.90;;;;;;10437195;28;20635;-85
2023/09/05 05:06:56;;;;;;;5.07;4.25;;;16.00;99.90;;;;;;10450073;28;20230;-85
2023/09/05 05:11:59;;;;;;;6.05;3.63;;;16.00;99.90;;;;;;10456520;28;20258;-85
2023/09/05 05:17:03;;;;;;;3.05;2.85;;;16.30;99.90;;;;;;10457322;28;20238;-85
2023/09/05 05:22:06;;;;;;;7.13;5.03;;;16.40;99.90;;;;;;10455049;28;20260;-85
2023/09/05 05:27:08;;;;;;;3.88;3.40;;;16.60;99.90;;;;;;10457447;28;20260;-85
2023/09/05 05:32:11;;;;;;;8.40;5.93;;;16.70;99.90;;;;;;10465327;28;20261;-85
2023/09/05 05:37:13;;;;;;;11.32;6.65;;;16.80;99.90;;;;;;10478770;28;20225;-85
2023/09/05 05:42:16;;;;;;;10.43;7.97;;;16.90;99.90;;;;;;10453269;28;20226;-85
2023/09/05 05:47:18;;;;;;;7.45;4.75;;;17.10;99.90;;;;;;10455873;28;20239;-86
2023/09/05 05:52:21;;;;;;;11.20;8.80;;;17.30;99.90;;;;;;10464646;28;20273;-84
2023/09/05 05:57:23;;;;;;;5.93;3.67;;;17.40;99.90;;;;;;10436986;28;20672;-85
2023/09/05 06:02:26;;;;;;;7.05;5.68;;;17.50;99.90;;;;;;10464550;28;20246;-85
2023/09/05 06:07:28;;;;;;;12.73;9.73;;;17.70;99.90;;;;;;10496734;28;20269;-86
2023/09/05 06:12:31;;;;;;;2.22;2.03;;;17.80;99.90;;;;;;10496498;28;20245;-86
2023/09/05 06:17:34;;;;;;;10.48;9.30;;;17.90;99.90;;;;;;10475313;28;20285;-85
2023/09/05 06:22:38;;;;;;;11.68;10.27;;;17.80;99.90;;;;;;10458721;28;20345;-85
2023/09/05 06:27:43;;;;;;;13.20;10.55;;;17.70;99.90;;;;;;10454923;28;20288;-85
2023/09/05 06:32:45;;;;;;;10.68;8.75;;;17.60;99.90;;;;;;10449637;28;20272;-85
2023/09/05 06:37:55;;;;;;;3.40;3.10;;;17.70;99.90;;;;;;10441313;28;20230;-85
2023/09/05 06:42:58;;;;;;;6.93;6.22;;;18.00;99.90;;;;;;10434798;28;20685;-85
2023/09/05 06:48:01;;;;;;;14.02;7.50;;;18.20;99.90;;;;;;10451094;28;20348;-85
2023/09/05 06:53:04;;;;;;;6.35;5.63;;;18.30;99.90;;;;;;10447893;28;20253;-85
2023/09/05 06:58:06;;;;;;;4.95;4.30;;;18.50;99.90;;;;;;10450687;28;20231;-85
2023/09/05 07:03:10;;;;;;;9.27;7.55;;;18.70;99.90;;;;;;10468314;28;20307;-85
2023/09/05 07:08:12;;;;;;;2.83;2.63;;;18.90;99.90;;;;;;10423781;28;20259;-85
2023/09/05 07:13:16;;;;;;;7.65;7.00;;;19.10;99.90;;;;;;10448363;28;20668;-85
2023/09/05 07:18:18;;;;;;;5.20;3.58;;;19.20;99.90;;;;;;10443825;28;20688;-85
2023/09/05 07:23:20;;;;;;;7.72;4.97;;;19.40;99.90;;;;;;10425439;28;20231;-86
2023/09/05 07:28:23;;;;;;;10.73;7.50;;;19.70;99.90;;;;;;10451120;28;20719;-85
2023/09/05 07:33:26;;;;;;;6.13;5.03;;;19.90;99.90;;;;;;10448493;28;20262;-85
2023/09/05 07:38:28;;;;;;;9.27;6.22;;;20.10;99.90;;;;;;10450658;28;20617;-85
2023/09/05 07:43:34;;;;;;;6.53;4.43;;;20.40;99.90;;;;;;10451130;28;20609;-86
2023/09/05 07:48:37;;;;;;;4.90;4.03;;;20.60;99.90;;;;;;10451517;28;20619;-85
2023/09/05 07:53:51;;;;;;;6.80;4.85;;;20.90;99.90;;;;;;10450800;28;20303;-85
2023/09/05 07:58:54;;;;;;;7.35;5.38;;;21.10;99.90;;;;;;10449934;28;20231;-86
2023/09/05 08:03:57;;;;;;;7.15;4.80;;;21.20;99.10;;;;;;10449586;28;20645;-86
2023/09/05 08:08:59;;;;;;;5.13;4.15;;;21.50;97.50;;;;;;10450551;28;20253;-85
2023/09/05 08:14:02;;;;;;;5.15;3.33;;;21.70;96.60;;;;;;10449632;28;20258;-86
2023/09/05 08:19:05;;;;;;;6.78;3.17;;;21.90;96.30;;;;;;10449555;28;20222;-86
2023/09/05 08:24:09;;;;;;;4.43;3.38;;;22.00;95.90;;;;;;10449254;28;20264;-85
2023/09/05 08:29:13;;;;;;;4.95;3.47;;;22.20;95.30;;;;;;10448732;28;20264;-85
2023/09/05 08:34:16;;;;;;;4.55;3.95;;;22.40;95.50;;;;;;10448842;28;20323;-85
2023/09/05 08:39:18;;;;;;;5.95;3.08;;;22.60;93.70;;;;;;10448941;28;20888;-86
2023/09/05 08:44:21;;;;;;;4.22;3.83;;;22.70;93.70;;;;;;10447336;28;20293;-86
2023/09/05 08:49:23;;;;;;;6.57;3.40;;;22.90;93.20;;;;;;10450041;28;20226;-85
2023/09/05 08:54:26;;;;;;;3.70;2.58;;;23.00;92.10;;;;;;10431010;28;20262;-86
2023/09/05 08:59:29;;;;;;;3.35;3.05;;;23.10;92.40;;;;;;10447534;28;20263;-86
2023/09/05 09:04:32;;;;;;;5.20;3.20;;;23.20;91.00;;;;;;10473486;28;20622;-86
2023/09/05 09:09:38;;;;;;;9.07;3.40;;;23.30;90.40;;;;;;10487911;28;20279;-86
2023/09/05 09:14:43;;;;;;;4.38;3.47;;;23.40;88.40;;;;;;10446243;28;20323;-85
2023/09/05 09:19:46;;;;;;;4.07;2.47;;;23.40;89.10;;;;;;10449258;28;20295;-85
2023/09/05 09:24:48;;;;;;;2.78;2.58;;;23.50;88.70;;;;;;10448779;28;20250;-85
2023/09/05 09:29:54;;;;;;;2.70;2.25;;;23.60;87.50;;;;;;10448770;28;20254;-86
2023/09/05 09:34:56;;;;;;;3.78;2.78;;;23.70;87.10;;;;;;10446756;28;20266;-86
2023/09/05 09:40:05;;;;;;;2.97;2.70;;;23.80;86.30;;;;;;10448239;28;20663;-86
2023/09/05 09:45:08;;;;;;;3.22;2.45;;;23.90;83.80;;;;;;10447019;28;20238;-86
2023/09/05 09:50:12;;;;;;;3.20;2.85;;;24.00;83.30;;;;;;10447798;28;20284;-86
2023/09/05 09:55:16;;;;;;;2.97;2.47;;;24.10;83.70;;;;;;10452568;28;20239;-87
2023/09/05 10:00:19;;;;;;;2.45;2.05;;;24.20;84.10;;;;;;10455450;28;20195;-86
2023/09/05 10:05:24;;;;;;;6.53;2.85;;;24.20;83.20;;;;;;10455800;28;20235;-86
2023/09/05 10:10:28;;;;;;;2.35;1.98;;;24.20;82.30;;;;;;10453332;28;20278;-85
2023/09/05 10:15:34;;;;;;;4.75;3.03;;;24.30;81.50;;;;;;10455022;28;20246;-85
2023/09/05 10:20:39;;;;;;;3.50;3.20;;;24.40;81.30;;;;;;10453140;28;20261;-85
2023/09/05 10:25:43;;;;;;;5.38;3.25;;;24.50;80.40;;;;;;10454063;28;20780;-85
2023/09/05 10:30:49;;;;;;;5.22;2.85;;;24.60;78.20;;;;;;10453718;28;20265;-86
2023/09/05 10:35:52;;;;;;;4.20;3.00;;;24.70;78.40;;;;;;10453634;28;20709;-86
2023/09/05 10:40:55;;;;;;;3.47;2.58;;;24.80;77.50;;;;;;10454241;28;20234;-85
2023/09/05 10:46:02;;;;;;;3.47;2.50;;;24.90;76.60;;;;;;10451557;28;20293;-85
2023/09/05 10:51:13;;;;;;;3.33;2.35;;;24.80;76.30;;;;;;10453847;28;20308;-85
2023/09/05 10:56:39;;;;;;;3.70;2.95;;;24.80;76.40;;;;;;10453464;28;20773;-85
2023/09/05 11:01:45;;;;;;;4.65;2.92;;;24.90;76.60;;;;;;10453089;28;20238;-85
2023/09/05 11:07:02;;;;;;;4.30;2.67;;;24.90;76.70;;;;;;10450521;28;20250;-86
2023/09/05 11:12:05;;;;;;;7.22;3.13;;;24.90;75.10;;;;;;10451017;28;20260;-86
2023/09/05 11:17:12;;;;;;;3.40;3.00;;;25.00;76.10;;;;;;10451037;28;20258;-86
2023/09/05 11:22:22;;;;;;;4.45;3.13;;;25.10;76.20;;;;;;10434328;28;20203;-86
2023/09/05 11:27:26;;;;;;;7.55;2.58;;;24.90;77.20;;;;;;10450519;28;20227;-86
2023/09/05 11:32:34;;;;;;;3.22;2.28;;;24.90;77.60;;;;;;10451488;28;20769;-86
2023/09/05 11:37:36;;;;;;;3.13;2.70;;;24.90;76.70;;;;;;10450553;28;20266;-86
2023/09/05 11:42:39;;;;;;;5.30;2.97;;;24.80;77.50;;;;;;10450951;28;21090;-86
2023/09/05 11:47:42;;;;;;;3.17;2.17;;;24.80;76.60;;;;;;10449987;28;20199;-86
2023/09/05 11:52:45;;;;;;;2.55;2.15;;;24.70;78.10;;;;;;10451468;28;20227;-86
2023/09/05 11:57:52;;;;;;;2.88;2.22;;;24.70;77.50;;;;;;10451519;28;20235;-86
2023/09/05 12:02:57;;;;;;;4.13;3.08;;;24.70;77.50;;;;;;10450793;28;20246;-87
2023/09/05 12:08:05;;;;;;;7.03;3.25;;;24.70;78.00;;;;;;10450827;28;20328;-86
2023/09/05 12:13:14;;;;;;;4.25;2.75;;;24.60;77.80;;;;;;10450431;28;20254;-87
2023/09/05 12:18:22;;;;;;;3.30;3.00;;;24.60;75.20;;;;;;10448723;28;20277;-86
2023/09/05 12:23:26;;;;;;;4.85;3.03;;;24.60;77.50;;;;;;10449076;28;20234;-86
2023/09/05 12:28:30;;;;;;;5.15;2.67;;;24.60;78.40;;;;;;10450332;28;20703;-86
2023/09/05 12:33:33;;;;;;;3.58;2.38;;;24.60;78.40;;;;;;10450035;28;20312;-86
2023/09/05 12:38:36;;;;;;;5.07;2.58;;;24.60;81.30;;;;;;10450032;28;20667;-87
2023/09/05 12:43:38;;;;;;;2.47;2.28;;;24.70;80.10;;;;;;10449652;28;20257;-86
2023/09/05 12:48:41;;;;;;;2.47;2.28;;;24.70;78.30;;;;;;10448161;28;20207;-87
2023/09/05 12:53:44;;;;;;;3.33;2.28;;;24.70;77.60;;;;;;10449283;28;20304;-86
2023/09/05 12:58:47;;;;;;;2.80;2.50;;;24.70;75.60;;;;;;10449791;28;20695;-86
2023/09/05 13:03:50;;;;;;;2.38;2.17;;;24.70;75.90;;;;;;10441365;28;20640;-86
2023/09/05 13:08:52;;;;;;;3.38;2.28;;;24.70;74.50;;;;;;10414286;28;20304;-86
2023/09/05 13:13:55;;;;;;;2.83;2.10;;;24.80;77.10;;;;;;10447704;28;20242;-86
2023/09/05 13:18:57;;;;;;;2.67;2.47;;;24.70;76.50;;;;;;10446900;28;20238;-86
2023/09/05 13:24:00;;;;;;;2.45;1.92;;;24.70;74.00;;;;;;10447028;28;20239;-85
2023/09/05 13:29:03;;;;;;;3.15;1.90;;;24.60;74.00;;;;;;10451309;28;20222;-86
2023/09/05 13:34:05;;;;;;;3.20;1.85;;;24.70;75.20;;;;;;10454068;28;20319;-86
2023/09/05 13:39:09;;;;;;;2.55;1.77;;;24.70;78.60;;;;;;10457187;28;20297;-86
2023/09/05 13:44:12;;;;;;;2.33;1.92;;;24.70;76.00;;;;;;10455906;28;20238;-86
2023/09/05 13:49:15;;;;;;;7.55;2.30;;;24.70;74.60;;;;;;10456645;28;20242;-86
2023/09/05 13:54:21;;;;;;;3.47;2.22;;;24.70;73.60;;;;;;10456219;28;20304;-86
2023/09/05 13:59:24;;;;;;;1.73;1.63;;;24.70;73.80;;;;;;10454724;28;20722;-86
2023/09/05 14:04:27;;;;;;;1.73;1.42;;;24.60;74.80;;;;;;10455754;28;20291;-86
2023/09/05 14:09:29;;;;;;;3.60;1.98;;;24.50;74.10;;;;;;10453955;28;20270;-86
2023/09/05 14:14:32;;;;;;;2.50;1.95;;;24.60;75.70;;;;;;10454043;28;20250;-86
2023/09/05 14:19:34;;;;;;;7.20;2.70;;;24.70;73.40;;;;;;10413480;28;20285;-93
2023/09/05 14:24:37;;;;;;;5.80;2.30;;;24.70;75.30;;;;;;10415640;28;20254;-92
2023/09/05 14:29:40;;;;;;;2.20;2.00;;;24.70;75.30;;;;;;10436219;28;20238;-93
2023/09/05 14:34:42;;;;;;;7.53;2.70;;;24.70;74.90;;;;;;10452896;28;20246;-93
2023/09/05 14:39:45;;;;;;;6.43;1.98;;;24.70;76.20;;;;;;10434943;28;20261;-94
2023/09/05 14:44:47;;;;;;;4.38;2.45;;;24.70;78.20;;;;;;10469663;28;20226;-93
2023/09/05 14:49:50;;;;;;;3.60;2.03;;;24.70;77.10;;;;;;10450772;28;20291;-94
2023/09/05 14:54:52;;;;;;;6.32;2.05;;;24.70;76.80;;;;;;10467305;28;20746;-93
2023/09/05 14:59:55;;;;;;;8.85;2.25;;;24.70;76.70;;;;;;10438877;28;20265;-95
2023/09/05 15:04:58;;;;;;;3.08;2.15;;;24.70;77.80;;;;;;10451126;28;20238;-93
2023/09/05 15:10:01;;;;;;;3.78;2.10;;;24.70;76.80;;;;;;10475996;28;20266;-95
2023/09/05 15:15:04;;;;;;;3.22;2.17;;;24.60;77.70;;;;;;10459896;28;20227;-93
2023/09/05 15:20:10;;;;;;;7.97;2.83;;;24.50;77.40;;;;;;10452136;28;20231;-93
2023/09/05 15:25:18;;;;;;;4.30;1.60;;;24.40;78.10;;;;;;10452487;28;20207;-93
2023/09/05 15:30:21;;;;;;;4.32;2.47;;;24.30;79.60;;;;;;10451276;28;20234;-94
2023/09/05 15:35:24;;;;;;;2.53;1.67;;;24.20;79.60;;;;;;10455235;28;20219;-95
2023/09/05 15:40:26;;;;;;;2.47;1.88;;;24.10;77.60;;;;;;10455438;28;20552;-95
2023/09/05 15:45:30;;;;;;;4.45;2.13;;;24.00;79.80;;;;;;10451113;28;20210;-94
2023/09/05 15:50:33;;;;;;;7.45;2.17;;;23.90;81.10;;;;;;10793946;22;20284;-96
2023/09/05 15:55:36;;;;;;;3.05;1.65;;;23.70;81.20;;;;;;10453596;28;20211;-96
2023/09/05 16:00:39;;;;;;;3.42;2.00;;;23.40;81.00;;;;;;10491017;28;20264;-96
2023/09/05 16:05:44;;;;;;;5.22;2.05;;;23.30;81.60;;;;;;10460463;28;20214;-95
2023/09/05 16:10:49;;;;;;;6.78;2.47;;;23.10;82.90;;;;;;10448986;28;20216;-94
2023/09/05 16:15:52;;;;;;;5.03;2.55;;;23.00;84.60;;;;;;10411994;28;20269;-95
2023/09/05 16:20:57;;;;;;;4.78;2.17;;;23.10;87.50;;;;;;10425729;28;20553;-96
2023/09/05 16:26:00;;;;;;;2.95;2.20;;;23.10;83.90;;;;;;10444600;28;20651;-95
2023/09/05 16:31:03;;;;;;;4.90;2.33;;;23.10;88.70;;;;;;10452257;28;20580;-95
2023/09/05 16:36:07;;;;;;;5.88;2.10;;;23.10;88.70;;;;;;10449698;28;20230;-96
2023/09/05 16:41:11;;;;;;;2.13;1.98;;;23.00;89.10;;;;;;10454450;28;20240;-94
2023/09/05 16:46:14;;;;;;;5.78;2.80;;;22.90;89.80;;;;;;10494502;28;20601;-96
2023/09/05 16:51:21;;;;;;;6.88;2.28;;;22.70;91.10;;;;;;10454260;28;20234;-96
2023/09/05 16:56:24;;;;;;;6.45;2.45;;;22.50;91.60;;;;;;10458684;28;20299;-96
2023/09/05 17:01:29;;;;;;;3.03;2.50;;;22.30;93.50;;;;;;10484705;28;20202;-96
2023/09/05 17:06:33;;;;;;;7.57;2.60;;;22.00;94.80;;;;;;10488651;28;20236;-96
2023/09/05 17:11:36;;;;;;;9.02;3.13;;;21.70;96.10;;;;;;10479160;28;20233;-96
2023/09/05 17:16:38;;;;;;;3.05;2.42;;;21.50;96.40;;;;;;10460794;28;20943;-95
2023/09/05 17:21:41;;;;;;;6.15;2.78;;;21.30;97.50;;;;;;10463534;28;20211;-95
2023/09/05 17:26:44;;;;;;;7.55;3.25;;;21.00;98.80;;;;;;10460833;28;20203;-95
2023/09/05 17:31:46;;;;;;;7.60;3.67;;;20.70;99.00;;;;;;10460775;28;20256;-94
2023/09/05 17:36:49;;;;;;;12.32;4.22;;;20.40;98.90;;;;;;10459757;28;20227;-96
2023/09/05 17:41:52;;;;;;;17.30;5.43;;;20.20;99.90;;;;;;10473156;28;20222;-96
2023/09/05 17:46:55;;;;;;;14.20;4.65;;;19.90;99.90;;;;;;10500871;28;20232;-96
2023/09/05 17:51:59;;;;;;;15.93;4.72;;;19.70;99.90;;;;;;10522691;28;20257;-96
2023/09/05 17:57:02;;;;;;;14.52;4.93;;;19.50;99.90;;;;;;10448660;28;20280;-95
2023/09/05 18:02:05;;;;;;;12.60;4.20;;;19.30;99.90;;;;;;10472619;28;20198;-94
2023/09/05 18:07:07;;;;;;;9.68;3.92;;;19.20;99.90;;;;;;10464669;28;20230;-94
2023/09/05 18:12:10;;;;;;;5.07;3.38;;;19.10;99.90;;;;;;10482243;28;20211;-95
2023/09/05 18:17:13;;;;;;;11.05;3.70;;;19.00;99.90;;;;;;10458906;28;20638;-94
2023/09/05 18:22:15;;;;;;;12.15;4.60;;;18.70;99.90;;;;;;10457153;28;20207;-96
2023/09/05 18:27:18;;;;;;;18.70;4.38;;;18.40;99.90;;;;;;10489090;28;20263;-96
2023/09/05 18:32:21;;;;;;;11.10;4.93;;;18.20;99.90;;;;;;10473025;28;20207;-95
2023/09/05 18:37:24;;;;;;;15.43;4.72;;;18.10;99.90;;;;;;10459107;28;20222;-96
2023/09/05 18:42:27;;;;;;;13.75;4.97;;;18.10;99.90;;;;;;10456448;28;20211;-96
2023/09/05 18:47:30;;;;;;;12.98;4.20;;;17.90;99.90;;;;;;10460781;28;20204;-96
2023/09/05 18:52:55;;;;;;;13.15;4.32;;;17.70;99.90;;;;;;10464605;28;20238;-95
2023/09/05 18:57:59;;;;;;;12.82;5.13;;;17.50;99.90;;;;;;10460783;28;20223;-95
2023/09/05 19:03:04;;;;;;;12.90;3.78;;;17.50;99.90;;;;;;10441063;28;20241;-94
2023/09/05 19:08:07;;;;;;;26.73;5.07;;;17.40;99.90;;;;;;10451484;28;20277;-93
2023/09/05 19:13:14;;;;;;;10.07;4.32;;;17.30;99.90;;;;;;10450694;28;20364;-93
2023/09/05 19:18:17;;;;;;;16.10;5.05;;;17.10;99.90;;;;;;10449576;28;20246;-93
2023/09/05 19:23:20;;;;;;;13.27;4.75;;;17.10;99.90;;;;;;10454780;28;20203;-95
2023/09/05 19:28:22;;;;;;;7.82;4.50;;;17.00;99.90;;;;;;10463163;28;20195;-95
2023/09/05 19:33:25;;;;;;;13.40;4.53;;;16.80;99.90;;;;;;10476143;28;20257;-95
2023/09/05 19:38:28;;;;;;;12.20;4.07;;;16.80;99.90;;;;;;10448694;28;20602;-95
2023/09/05 19:43:34;;;;;;;20.40;4.90;;;16.70;99.90;;;;;;10451704;28;20203;-94
2023/09/05 19:48:38;;;;;;;14.20;5.00;;;16.60;99.90;;;;;;10432362;28;20212;-96
2023/09/05 19:53:40;;;;;;;15.38;6.00;;;16.40;99.90;;;;;;10439476;28;20222;-94
2023/09/05 19:58:43;;;;;;;19.80;5.63;;;16.20;99.90;;;;;;10495397;28;20222;-95
2023/09/05 20:03:46;;;;;;;15.07;4.78;;;16.10;99.90;;;;;;10458913;28;20242;-95
2023/09/05 20:08:49;;;;;;;10.95;4.60;;;16.10;99.90;;;;;;10451700;28;20625;-95
2023/09/05 20:13:53;;;;;;;10.90;4.90;;;16.20;99.90;;;;;;10453774;28;20732;-96
2023/09/05 20:18:56;;;;;;;24.27;6.32;;;16.00;99.90;;;;;;10446961;28;20272;-95
2023/09/05 20:24:01;;;;;;;7.18;3.90;;;15.90;99.90;;;;;;10447787;28;20563;-94
2023/09/05 20:29:04;;;;;;;12.40;5.18;;;15.80;99.90;;;;;;10443606;28;20204;-96
2023/09/05 20:34:06;;;;;;;10.45;4.85;;;15.90;99.90;;;;;;10425207;28;20211;-94
2023/09/05 20:39:10;;;;;;;12.75;5.93;;;15.70;99.90;;;;;;10416720;28;20695;-96
2023/09/05 20:44:12;;;;;;;8.35;4.32;;;15.60;99.90;;;;;;10441135;28;20199;-93
2023/09/05 20:49:15;;;;;;;7.10;4.47;;;15.50;99.90;;;;;;10475159;28;20202;-94
2023/09/05 20:54:18;;;;;;;7.13;3.72;;;15.40;99.90;;;;;;10467564;28;20254;-95
2023/09/05 20:59:20;;;;;;;7.80;5.25;;;15.60;99.90;;;;;;10452239;28;20223;-95
2023/09/05 21:04:23;;;;;;;10.02;5.82;;;15.50;99.90;;;;;;10452729;28;20256;-95
2023/09/05 21:09:26;;;;;;;6.07;4.63;;;15.50;99.90;;;;;;10452546;28;20191;-95
2023/09/05 21:14:29;;;;;;;7.50;4.90;;;15.50;99.90;;;;;;10448913;28;20709;-94
2023/09/05 21:19:31;;;;;;;11.95;6.97;;;15.60;99.90;;;;;;10456669;28;20761;-96
2023/09/05 21:24:34;;;;;;;11.98;6.43;;;15.60;99.90;;;;;;10453067;28;20687;-95
2023/09/05 21:29:36;;;;;;;10.63;6.68;;;15.30;99.90;;;;;;10453215;28;20195;-95
2023/09/05 21:34:39;;;;;;;7.78;4.68;;;15.40;99.90;;;;;;10450508;28;20199;-96
2023/09/05 21:39:41;;;;;;;11.98;6.97;;;15.30;99.90;;;;;;10453801;28;20245;-95
2023/09/05 21:44:44;;;;;;;8.07;7.00;;;15.20;99.90;;;;;;10450810;28;20221;-96
2023/09/05 21:49:47;;;;;;;9.50;7.05;;;15.10;99.90;;;;;;10459775;28;20287;-93
2023/09/05 21:54:50;;;;;;;8.77;5.90;;;15.10;99.90;;;;;;10499166;28;20202;-95
2023/09/05 21:59:52;;;;;;;8.60;6.28;;;15.20;99.90;;;;;;10469633;28;20230;-95
2023/09/05 22:04:56;;;;;;;10.98;6.57;;;15.20;99.90;;;;;;10458515;28;20210;-95
2023/09/05 22:09:59;;;;;;;9.23;5.15;;;15.10;99.90;;;;;;10457490;28;20261;-94
2023/09/05 22:15:03;;;;;;;8.40;6.95;;;15.10;99.90;;;;;;10457723;28;20229;-96
2023/09/05 22:20:11;;;;;;;7.57;6.32;;;14.90;99.90;;;;;;10457077;28;20222;-94
2023/09/05 22:25:14;;;;;;;12.10;6.28;;;14.90;99.90;;;;;;10456581;28;20284;-95
2023/09/05 22:30:16;;;;;;;12.00;5.85;;;15.00;99.90;;;;;;10456106;28;20199;-95
2023/09/05 22:35:19;;;;;;;5.30;4.80;;;14.70;99.90;;;;;;10415110;28;20207;-94
2023/09/05 22:40:21;;;;;;;6.53;5.47;;;14.70;99.90;;;;;;10431150;28;20204;-94
2023/09/05 22:45:24;;;;;;;11.63;6.72;;;14.70;99.90;;;;;;10431909;28;20252;-94
2023/09/05 22:50:27;;;;;;;6.07;4.20;;;14.60;99.90;;;;;;10454877;28;20223;-94
2023/09/05 22:55:37;;;;;;;12.95;6.75;;;14.60;99.90;;;;;;10455040;28;20612;-96
2023/09/05 23:00:40;;;;;;;14.13;6.40;;;14.80;99.90;;;;;;10488931;28;20668;-95
2023/09/05 23:05:43;;;;;;;13.63;6.25;;;14.60;99.90;;;;;;10487610;28;20202;-95
2023/09/05 23:10:45;;;;;;;10.57;6.25;;;14.50;99.90;;;;;;10456695;28;20191;-95
2023/09/05 23:15:48;;;;;;;5.85;5.07;;;14.40;99.90;;;;;;10460814;28;20210;-95
2023/09/05 23:20:51;;;;;;;8.55;7.13;;;14.30;99.90;;;;;;10496783;28;20202;-94
2023/09/05 23:25:53;;;;;;;6.50;5.47;;;14.40;99.90;;;;;;10487904;28;20264;-95
2023/09/05 23:30:56;;;;;;;8.88;6.43;;;14.30;99.90;;;;;;10454074;28;20273;-94
2023/09/05 23:35:58;;;;;;;5.95;3.83;;;14.30;99.90;;;;;;10455301;28;20592;-95
2023/09/05 23:41:01;;;;;;;8.35;4.85;;;14.30;99.90;;;;;;10454024;28;20199;-95
2023/09/05 23:46:04;;;;;;;5.13;4.63;;;14.30;99.90;;;;;;10440469;28;20257;-95
2023/09/05 23:51:07;;;;;;;7.78;6.03;;;14.40;99.90;;;;;;10415271;28;20296;-96
2023/09/05 23:56:10;;;;;;;11.05;5.93;;;13.90;99.90;;;;;;10452428;28;20241;-94
